Terminal Aerodrome Forecast
Issued by NWS Jackson, MS

Current Version | Previous Version | Text Only | Print | Product List | Glossary On
Versions: 1 2 3 4 5 6 7 8 9 10 11 12 13 14 15 16 17
000
FTUS44 KJAN 281743
TAFMEI
TAF
KMEI 281743Z 2818/2918 VRB05KT P6SM VCSH BKN050 BKN100
     FM282300 05006KT P6SM SCT050 BKN100
     FM291100 09008KT P6SM BKN030 BKN050=

USA.gov is the U.S. government's official web portal to all federal, state and local government web resources and services.